• Join FlightAware (Why Join?)
  • Login
  • US Flag 
10:34AM EST


 

Airport Tracker/Info


-or-


 

Live Flight TrackerFlight Track Log ✈ UAL614 ✈ 20-Apr-2014 ✈ KORD - KDCA

Flight Track Log - Related Links

Times and Time Zones

All times are in EDT time to prevent confusion due to time zone crossing. See the UAL614 flight status page for this flight to view local times or setup timezone preferences in your user account.

Time Position Orientation Groundspeed Altitude Reporting Facility
EDT Latitude Longitude Course Direction KTS MPH feet Rate Location/Type
02:16PM 41.9833 -87.9500 90° East 182 209 2,000  Level Chicago TRACON
02:17PM 42.0333 -87.9000 37° Northeast 251 289 3,900 2,280 Climbing Chicago TRACON
02:18PM 41.9500 -87.4318 90° East  Level FlightAware Approximate
02:18PM 42.0678 -87.8650 37° Northeast 249 287 5,700  Level Chicago Center
02:19PM 41.9428 -87.2725 96° East  Level FlightAware Approximate
02:19PM 42.0656 -87.7597 92° East 290 334 9,100  Level Chicago Center
02:20PM 41.9333 -87.1134 90° East  Level FlightAware Approximate
02:20PM 42.0461 -87.6486 103° East 300 345 12,700  Level Chicago Center
02:21PM 41.9333 -86.9537 90° East  Level FlightAware Approximate
02:21PM 42.0261 -87.5311 103° East 319 367 15,600  Level Chicago Center
02:22PM 42.0056 -87.4069 103° East 332 382 18,100 2,040 Climbing Chicago Center
02:23PM 41.9811 -87.2747 104° East 359 413 19,800 1,680 Climbing Chicago Center
02:24PM 41.9567 -87.1281 103° East 396 456 21,600 1,920 Climbing Chicago Center
02:25PM 41.9458 -86.9711 95° East 420 483 23,800 1,920 Climbing Chicago Center
02:26PM 41.9489 -86.8106 88° East 426 490 25,600 1,800 Climbing Chicago Center
02:27PM 41.9511 -86.6269 89° East 442 509 27,500 1,500 Climbing Chicago Center
02:28PM 41.9533 -86.4544 89° East 456 525 28,800 1,320 Climbing Chicago Center
02:29PM 41.9539 -86.2767 90° East 473 544 30,300 1,320 Climbing Chicago Center
02:30PM 41.9328 -86.0961 99° East 485 558 31,600 1,500 Climbing Chicago Center
02:31PM 41.8964 -85.9197 105° East 489 563 33,500 1,860 Climbing Chicago Center
02:32PM 41.8561 -85.7114 104° East 486 559 35,500 1,560 Climbing Chicago Center
02:33PM 41.8222 -85.5392 105° East 477 549 36,700 720 Climbing Chicago Center
02:34PM 41.7864 -85.3625 105° East 478 550 37,000 120 Climbing Chicago Center
02:35PM 41.7508 -85.1872 105° East 477 549 37,000  Level Chicago Center
02:36PM 41.7153 -85.0128 105° East 485 558 37,000  Level Chicago Center
02:37PM 41.6786 -84.8389 106° East 485 558 37,000  Level Chicago Center
02:38PM 41.6633 -84.7333 101° East 482 555 37,000  Level Cleveland Center
02:39PM 41.6144 -84.5342 108° East 474 545 37,000  Level Cleveland Center
02:40PM 41.5456 -84.3844 122° Southeast 472 543 37,000  Level Cleveland Center
02:41PM 41.4756 -84.2306 121° Southeast 473 544 37,000  Level Cleveland Center
02:42PM 41.4067 -84.0833 122° Southeast 473 544 37,000  Level Cleveland Center
02:43PM 41.3397 -83.9392 122° Southeast 472 543 37,000 -60 Level Cleveland Center
02:44PM 41.2700 -83.7914 122° Southeast 467 537 36,900  Descending Cleveland Center
02:45PM 41.2014 -83.6428 121° Southeast 470 541 37,000  Climbing Cleveland Center
02:46PM 41.1322 -83.4961 122° Southeast 470 541 37,000  Level Cleveland Center
02:47PM 41.0522 -83.3286 122° Southeast 471 542 37,000  Level Cleveland Center
02:48PM 40.9828 -83.1819 122° Southeast 471 542 37,000  Level Cleveland Center
02:49PM 40.9069 -83.0222 122° Southeast 469 540 37,000  Level Cleveland Center
02:50PM 40.8378 -82.8772 122° Southeast 468 539 37,000  Level Cleveland Center
02:51PM 40.8169 -82.8344 123° Southeast 468 539 37,000  Level Cleveland Center
02:52PM 40.7447 -82.6844 122° Southeast 466 536 37,000  Level Cleveland Center
02:53PM 40.6628 -82.5172 123° Southeast 466 536 37,000  Level Cleveland Center
02:54PM 40.5933 -82.3747 123° Southeast 463 533 37,000  Level Cleveland Center
02:55PM 40.5244 -82.2342 123° Southeast 458 527 37,000  Level Cleveland Center
02:56PM 40.4564 -82.0939 122° Southeast 457 526 37,000  Level Cleveland Center
02:57PM 40.3864 -81.9542 123° Southeast 456 525 37,000  Level Cleveland Center
02:58PM 40.3189 -81.8186 123° Southeast 456 525 37,000  Level Cleveland Center
02:59PM 40.2417 -81.6633 123° Southeast 457 526 37,000  Level Cleveland Center
03:00PM 40.1719 -81.5244 123° Southeast 459 528 37,000  Level Cleveland Center
03:01PM 40.1019 -81.3850 123° Southeast 460 529 37,000  Level Cleveland Center
03:02PM 40.0319 -81.2475 124° Southeast 460 529 37,000  Level Cleveland Center
03:03PM 39.9481 -81.0836 124° Southeast 458 527 37,000 -300 Level Cleveland Center
03:04PM 39.8794 -80.9492 124° Southeast 453 521 36,500 -780 Descending Cleveland Center
03:05PM 39.8094 -80.8131 124° Southeast 452 520 35,500 -1,020 Descending Cleveland Center
03:06PM 39.7397 -80.6769 124° Southeast 454 522 34,500 -1,020 Descending Cleveland Center
03:07PM 39.6703 -80.5444 124° Southeast 450 518 33,500 -1,020 Descending Cleveland Center
03:08PM 39.6033 -80.4153 124° Southeast 441 507 32,500 -1,080 Descending Cleveland Center
03:09PM 39.5217 -80.2589 124° Southeast 439 505 31,300 -780 Descending Cleveland Center
03:10PM 39.4536 -80.1314 125° Southeast 436 502 31,000 -180 Descending Cleveland Center
03:11PM 39.3850 -80.0003 124° Southeast 442 509 31,000  Level Cleveland Center
03:12PM 39.3189 -79.8658 122° Southeast 444 511 31,000 -480 Level Cleveland Center
03:13PM 39.2839 -79.7025 105° East 469 540 30,100 -1,380 Descending Cleveland Center
03:14PM 39.2714 -79.5431 96° East 457 526 28,200 -1,800 Descending Cleveland Center
03:15PM 39.2558 -79.3569 96° East 443 510 26,400 -1,560 Descending Cleveland Center
03:16PM 39.2567 -79.2933 89° East 442 509 25,800 -1,440 Descending Washington Center
03:17PM 39.2344 -79.1289 100° East 430 495 24,200 -1,560 Descending Washington Center
03:18PM 39.2242 -78.9836 95° East 419 482 22,800 -1,440 Descending Washington Center
03:19PM 39.2114 -78.8411 97° East 407 468 21,400 -1,440 Descending Washington Center
03:20PM 39.1964 -78.7036 98° East 396 456 20,000 -1,380 Descending Washington Center
03:21PM 39.1831 -78.5667 97° East 389 448 18,700 -1,140 Descending Washington Center
03:22PM 39.1717 -78.4403 97° East 379 436 17,800 -1,140 Descending Washington Center
03:23PM 39.1494 -78.3108 102° East 369 425 16,500 -1,260 Descending Washington Center
03:24PM 39.1189 -78.1894 108° East 364 419 15,300 -1,200 Descending Washington Center
03:25PM 39.0881 -78.0706 108° East 354 407 14,200 -1,200 Descending Washington Center
03:26PM 39.0592 -77.9547 108° East 343 395 13,000 -1,200 Descending Washington Center
03:27PM 39.0319 -77.8417 107° East 337 388 11,900 -960 Descending Washington Center
03:28PM 39.0067 -77.7472 109° East 326 375 11,100 -1,020 Descending Washington Center
03:29PM 38.9667 -77.5833 107° East 285 328 9,400 -1,080 Descending Potomac TRACON
03:30PM 38.9333 -77.5167 123° Southeast 283 326 8,600 -960 Descending Potomac TRACON
03:31PM 38.9000 -77.4167 113° Southeast 273 314 7,600 -1,200 Descending Potomac TRACON
03:32PM 38.8667 -77.3500 123° Southeast 261 300 6,300 -960 Descending Potomac TRACON
03:33PM 38.8333 -77.2500 113° Southeast 262 302 5,700 -1,080 Descending Potomac TRACON
03:34PM 38.7833 -77.1833 134° Southeast 248 285 4,200 -1,500 Descending Potomac TRACON
03:35PM 38.7500 -77.1167 123° Southeast 254 292 2,700 -900 Descending Potomac TRACON
03:36PM 38.7000 -77.0833 153° Southeast 213 245 2,500 -180 Descending Potomac TRACON
03:37PM 38.7333 -77.0333 49° Northeast 169 194 2,400 -600 Descending Potomac TRACON
03:38PM 38.7667 -77.0333 360° North 176 203 1,400 -900 Descending Potomac TRACON
03:39PM 38.8167 -77.0333 360° North 136 157 600 -840 Descending Potomac TRACON